Terminal Aerodrome Forecast
Issued by NWS Caribou, ME

Home | Current Version | Previous Version | Text Only | Print | Product List | Glossary On
Versions: 1 2 3 4 5 6 7 8 9 10 11 12 13 14 15 16
000
FTUS41 KCAR 252320
TAFBGR
TAF
KBGR 252320Z 2600/2624 10011KT P6SM FEW020 BKN045 OVC070
      TEMPO 2601/2603 -RA OVC030
     FM260300 08014G22KT 6SM -SHRA OVC015 WS020/07035KT
     FM260900 05016G26KT 4SM -RA BR OVC007
     FM261400 05012KT 2SM RA BR OVC004
     FM261800 02012KT P6SM VCSH OVC008=

USA.gov is the U.S. government's official web portal to all federal, state and local government web resources and services.